createdAt,value
2022-10-15T00:01:30.091Z,1.20
2022-10-15T00:03:58.099Z,1.20
2022-10-15T00:06:26.332Z,1.27
2022-10-15T00:08:55.689Z,1.63
2022-10-15T00:11:25.926Z,1.35
2022-10-15T00:13:54.596Z,1.55
2022-10-15T00:16:24.628Z,1.15
2022-10-15T00:18:53.753Z,1.42
2022-10-15T00:21:22.588Z,1.20
2022-10-15T00:23:50.991Z,1.35
2022-10-15T00:26:22.004Z,1.58
2022-10-15T00:28:51.711Z,1.40
2022-10-15T00:31:26.388Z,1.55
2022-10-15T00:33:55.709Z,1.30
2022-10-15T00:36:26.764Z,1.50
2022-10-15T00:38:54.866Z,1.50
2022-10-15T00:41:28.258Z,1.70
2022-10-15T00:43:58.470Z,1.58
2022-10-15T00:46:31.201Z,1.77
2022-10-15T00:51:40.887Z,1.77
2022-10-15T00:54:09.839Z,1.70
2022-10-15T00:56:41.154Z,1.60
2022-10-15T00:59:11.129Z,1.55
2022-10-15T01:01:39.568Z,1.70
2022-10-15T01:04:08.810Z,1.50
2022-10-15T01:06:37.617Z,1.33
2022-10-15T01:09:06.003Z,1.58
2022-10-15T01:11:43.415Z,1.75
2022-10-15T01:14:32.753Z,1.55
2022-10-15T01:17:06.185Z,1.40
2022-10-15T01:22:28.526Z,1.58
2022-10-15T01:25:09.597Z,1.30
2022-10-15T01:27:43.204Z,1.52
2022-10-15T01:30:24.718Z,1.35
2022-10-15T01:33:30.297Z,1.20
2022-10-15T01:36:07.193Z,1.20
2022-10-15T01:38:46.433Z,1.00
2022-10-15T01:41:19.473Z,1.00
2022-10-15T01:43:56.475Z,0.85
2022-10-15T01:46:37.779Z,1.05
2022-10-15T01:49:09.758Z,0.90
2022-10-15T01:51:40.428Z,1.00
2022-10-15T01:54:12.929Z,1.00
2022-10-15T01:56:41.815Z,0.90
2022-10-15T01:59:11.880Z,1.08
2022-10-15T02:04:22.664Z,0.90
2022-10-15T02:06:58.688Z,0.77
2022-10-15T02:09:35.055Z,0.80
2022-10-15T02:12:13.848Z,1.00
2022-10-15T02:14:52.316Z,0.90
2022-10-15T02:17:29.489Z,1.15
2022-10-15T02:20:03.201Z,0.60
2022-10-15T02:22:36.420Z,0.90
2022-10-15T02:25:07.867Z,0.75
2022-10-15T02:27:37.990Z,0.80
2022-10-15T02:30:09.579Z,0.90
2022-10-15T02:32:41.345Z,0.68
2022-10-15T02:35:11.621Z,0.73
2022-10-15T02:40:13.572Z,0.80
2022-10-15T02:42:41.576Z,0.68
2022-10-15T02:45:10.489Z,1.10
2022-10-15T02:47:39.797Z,0.82
2022-10-15T02:50:08.164Z,0.90
2022-10-15T02:52:36.131Z,0.60
2022-10-15T02:55:04.266Z,0.88
2022-10-15T02:57:32.270Z,0.73
2022-10-15T03:00:01.909Z,0.70
2022-10-15T03:02:30.288Z,0.80
2022-10-15T03:05:00.161Z,1.08
2022-10-15T03:07:28.248Z,0.88
2022-10-15T03:09:56.176Z,0.70
2022-10-15T03:12:26.001Z,0.50
2022-10-15T03:14:55.123Z,0.90
2022-10-15T03:17:23.771Z,0.77
2022-10-15T03:19:52.246Z,0.50
2022-10-15T03:22:21.599Z,0.80
2022-10-15T03:24:54.507Z,0.80
2022-10-15T03:27:28.489Z,0.60
2022-10-15T03:29:56.789Z,0.80
2022-10-15T03:32:27.101Z,0.57
2022-10-15T03:34:55.175Z,0.60
2022-10-15T03:37:25.469Z,0.90
2022-10-15T03:39:54.045Z,0.80
2022-10-15T03:42:22.572Z,0.85
2022-10-15T03:44:51.714Z,0.65
2022-10-15T03:47:20.973Z,0.90
2022-10-15T03:49:50.559Z,0.95
2022-10-15T03:52:18.937Z,0.70
2022-10-15T03:54:49.944Z,0.65
2022-10-15T03:57:21.002Z,0.90
2022-10-15T04:00:01.077Z,0.80
2022-10-15T04:02:40.316Z,0.80
2022-10-15T04:05:18.816Z,0.70
2022-10-15T04:07:52.796Z,0.70
2022-10-15T04:10:23.843Z,0.88
2022-10-15T04:12:51.983Z,0.50
2022-10-15T04:15:20.535Z,0.85
2022-10-15T04:17:56.574Z,0.60
2022-10-15T04:20:27.221Z,0.70
2022-10-15T04:22:55.779Z,0.60
2022-10-15T04:25:25.234Z,0.70
2022-10-15T04:27:54.362Z,0.65
2022-10-15T04:30:23.924Z,0.50
2022-10-15T04:32:59.101Z,0.50
2022-10-15T04:35:27.250Z,0.60
2022-10-15T04:38:05.894Z,0.60
2022-10-15T04:41:04.385Z,0.60
2022-10-15T04:43:52.944Z,0.63
2022-10-15T04:46:22.305Z,0.60
2022-10-15T04:48:52.680Z,0.28
2022-10-15T04:51:22.170Z,0.50
2022-10-15T04:54:13.615Z,0.80
2022-10-15T04:56:57.944Z,0.30
2022-10-15T04:59:26.364Z,0.50
2022-10-15T05:02:17.223Z,0.40
2022-10-15T05:04:49.553Z,0.45
2022-10-15T05:07:17.542Z,0.43
2022-10-15T05:09:46.670Z,0.40
2022-10-15T05:12:16.588Z,0.30
2022-10-15T05:14:44.641Z,0.20
2022-10-15T05:17:19.839Z,0.30
2022-10-15T05:19:49.368Z,0.30
2022-10-15T05:22:22.014Z,0.40
2022-10-15T05:25:01.110Z,0.30
2022-10-15T05:27:35.300Z,0.65
2022-10-15T05:30:06.137Z,0.35
2022-10-15T05:32:39.612Z,0.40
2022-10-15T05:35:11.917Z,0.30
2022-10-15T05:37:53.884Z,0.63
2022-10-15T05:40:26.326Z,0.40
2022-10-15T05:43:08.623Z,0.50
2022-10-15T05:45:36.570Z,0.20
2022-10-15T05:48:06.880Z,0.25
2022-10-15T05:50:35.810Z,0.22
2022-10-15T05:53:06.097Z,0.30
2022-10-15T05:55:34.061Z,0.32
2022-10-15T05:58:03.904Z,0.30
2022-10-15T06:00:33.901Z,0.40
2022-10-15T06:03:01.881Z,0.28
2022-10-15T06:05:29.827Z,0.30
2022-10-15T06:07:58.287Z,0.40
2022-10-15T06:10:28.371Z,0.28
2022-10-15T06:12:56.413Z,0.20
2022-10-15T06:15:24.334Z,0.30
2022-10-15T06:17:55.068Z,0.47
2022-10-15T06:20:23.024Z,0.50
2022-10-15T06:22:51.027Z,0.20
2022-10-15T06:25:18.981Z,0.40
2022-10-15T06:27:47.001Z,0.43
2022-10-15T06:30:14.947Z,0.30
2022-10-15T06:32:48.728Z,0.28
2022-10-15T06:35:19.671Z,0.20
2022-10-15T06:37:47.826Z,0.38
2022-10-15T06:40:16.432Z,0.50
2022-10-15T06:42:45.160Z,0.30
2022-10-15T06:45:15.779Z,0.50
2022-10-15T06:47:46.260Z,0.20
2022-10-15T06:50:14.237Z,0.30
2022-10-15T06:52:44.521Z,0.30
2022-10-15T06:55:12.508Z,0.43
2022-10-15T06:57:40.436Z,0.30
2022-10-15T07:00:09.382Z,0.45
2022-10-15T07:02:37.450Z,0.40
2022-10-15T07:05:06.024Z,0.25
2022-10-15T07:07:34.416Z,0.20
2022-10-15T07:10:03.806Z,0.30
2022-10-15T07:12:34.285Z,0.30
2022-10-15T07:15:02.221Z,0.40
2022-10-15T07:17:30.802Z,0.40
2022-10-15T07:19:58.709Z,0.40
2022-10-15T07:22:26.930Z,0.40
2022-10-15T07:24:55.097Z,0.40
2022-10-15T07:27:24.671Z,0.32
2022-10-15T07:29:55.397Z,0.20
2022-10-15T07:32:23.465Z,0.40
2022-10-15T07:34:51.614Z,0.35
2022-10-15T07:37:20.832Z,0.35
2022-10-15T07:39:48.733Z,0.20
2022-10-15T07:42:16.721Z,0.40
2022-10-15T07:44:45.995Z,0.30
2022-10-15T07:47:15.314Z,0.30
2022-10-15T07:49:43.349Z,0.50
2022-10-15T07:52:12.675Z,0.40
2022-10-15T07:54:40.689Z,0.30
2022-10-15T07:57:09.122Z,0.20
2022-10-15T07:59:37.208Z,0.30
2022-10-15T08:02:06.547Z,0.40
2022-10-15T08:04:35.466Z,0.30
2022-10-15T08:07:05.808Z,0.30
2022-10-15T08:09:36.237Z,0.38
2022-10-15T08:12:05.058Z,0.30
2022-10-15T08:14:33.250Z,0.30
2022-10-15T08:17:02.080Z,0.25
2022-10-15T08:19:31.438Z,0.40
2022-10-15T08:21:59.726Z,0.30
2022-10-15T08:24:30.124Z,0.35
2022-10-15T08:26:59.199Z,0.30
2022-10-15T08:29:27.262Z,0.20
2022-10-15T08:31:55.215Z,0.30
2022-10-15T08:34:24.873Z,0.40
2022-10-15T08:36:54.148Z,0.50
2022-10-15T08:39:22.087Z,0.65
2022-10-15T08:41:53.825Z,0.40
2022-10-15T08:44:27.047Z,0.40
2022-10-15T08:47:00.126Z,0.40
2022-10-15T08:49:38.437Z,0.50
2022-10-15T08:52:17.891Z,0.50
2022-10-15T08:54:46.119Z,0.40
2022-10-15T08:57:23.315Z,0.40
2022-10-15T08:59:58.093Z,0.40
2022-10-15T09:02:30.665Z,0.30
2022-10-15T09:05:10.216Z,0.50
2022-10-15T09:07:45.570Z,0.90
2022-10-15T09:10:18.634Z,0.50
2022-10-15T09:12:54.377Z,0.73
2022-10-15T09:15:27.025Z,0.40
2022-10-15T09:17:56.405Z,0.52
2022-10-15T09:20:32.814Z,0.55
2022-10-15T09:23:02.656Z,0.40
2022-10-15T09:25:36.007Z,0.32
2022-10-15T09:30:43.571Z,0.65
2022-10-15T09:33:17.659Z,0.40
2022-10-15T09:35:51.066Z,0.50
2022-10-15T09:41:05.117Z,0.60
2022-10-15T09:43:38.384Z,0.50
2022-10-15T09:46:06.957Z,0.43
2022-10-15T09:48:42.721Z,0.40
2022-10-15T09:51:19.937Z,0.60
2022-10-15T09:53:57.119Z,0.45
2022-10-15T09:56:30.113Z,0.50
2022-10-15T09:59:00.151Z,0.50
2022-10-15T10:01:29.597Z,0.45
2022-10-15T10:04:12.428Z,0.43
2022-10-15T10:06:49.201Z,0.43
2022-10-15T10:09:21.883Z,0.60
2022-10-15T10:11:52.999Z,0.50
2022-10-15T10:14:26.971Z,0.80
2022-10-15T10:17:17.552Z,0.70
2022-10-15T10:19:47.460Z,0.60
2022-10-15T10:22:18.041Z,0.50
2022-10-15T10:24:48.389Z,0.43
2022-10-15T10:27:23.042Z,0.60
2022-10-15T10:29:56.800Z,0.70
2022-10-15T10:32:29.186Z,0.60
2022-10-15T10:34:57.880Z,0.40
2022-10-15T10:37:26.747Z,0.40
2022-10-15T10:39:59.367Z,0.60
2022-10-15T10:42:33.797Z,0.40
2022-10-15T10:45:19.978Z,0.60
2022-10-15T10:47:48.154Z,0.70
2022-10-15T10:50:32.090Z,0.57
2022-10-15T10:53:11.292Z,0.50
2022-10-15T10:55:46.450Z,0.57
2022-10-15T10:58:22.166Z,0.30
2022-10-15T11:00:55.478Z,1.00
2022-10-15T11:03:32.557Z,0.60
2022-10-15T11:06:23.422Z,0.50
2022-10-15T11:09:03.984Z,0.50
2022-10-15T11:11:42.633Z,0.75
2022-10-15T11:14:21.598Z,0.93
2022-10-15T11:16:55.631Z,0.80
2022-10-15T11:22:41.506Z,0.85
2022-10-15T11:25:18.533Z,0.82
2022-10-15T11:28:01.282Z,0.50
2022-10-15T11:30:40.730Z,0.40
2022-10-15T11:33:27.430Z,0.70
2022-10-15T11:36:11.712Z,0.50
2022-10-15T11:38:47.055Z,0.60
2022-10-15T11:41:35.484Z,0.43
2022-10-15T11:44:22.327Z,0.50
2022-10-15T11:47:00.569Z,0.50
2022-10-15T11:49:41.157Z,0.32
2022-10-15T11:52:30.880Z,0.40
2022-10-15T11:55:05.041Z,0.40
2022-10-15T11:57:35.866Z,0.50
2022-10-15T12:00:16.741Z,0.40
2022-10-15T12:02:46.417Z,0.75
2022-10-15T12:05:19.583Z,0.50
2022-10-15T12:07:49.189Z,0.50
2022-10-15T12:10:36.384Z,0.50
2022-10-15T12:13:09.994Z,0.68
2022-10-15T12:15:46.263Z,0.30
2022-10-15T12:18:22.224Z,0.45
2022-10-15T12:20:51.176Z,0.55
2022-10-15T12:23:26.173Z,0.50
2022-10-15T12:25:55.452Z,0.35
2022-10-15T12:28:25.868Z,0.50
2022-10-15T12:31:03.151Z,0.50
2022-10-15T12:33:35.590Z,0.43
2022-10-15T12:36:09.430Z,0.40
2022-10-15T12:38:40.820Z,0.57
2022-10-15T12:41:10.648Z,0.50
2022-10-15T12:43:42.067Z,0.40
2022-10-15T12:46:13.125Z,0.55
2022-10-15T12:48:43.773Z,0.40
2022-10-15T12:51:38.885Z,0.52
2022-10-15T12:54:41.773Z,0.35
2022-10-15T12:57:47.448Z,0.47
2022-10-15T13:00:45.603Z,0.57
2022-10-15T13:03:34.567Z,0.50
2022-10-15T13:06:35.027Z,0.50
2022-10-15T13:09:17.075Z,0.38
2022-10-15T13:11:48.806Z,0.70
2022-10-15T13:14:29.930Z,0.73
2022-10-15T13:17:03.370Z,0.43
2022-10-15T13:19:38.925Z,0.68
2022-10-15T13:22:20.800Z,0.68
2022-10-15T13:24:48.985Z,0.60
2022-10-15T13:27:23.355Z,0.47
2022-10-15T13:29:58.406Z,0.60
2022-10-15T13:32:28.279Z,0.50
2022-10-15T13:34:58.429Z,0.47
2022-10-15T13:37:31.986Z,0.40
2022-10-15T13:40:03.238Z,0.52
2022-10-15T13:42:34.783Z,0.50
2022-10-15T13:45:04.603Z,0.50
2022-10-15T13:47:35.323Z,0.80
2022-10-15T13:50:15.530Z,0.47
2022-10-15T13:52:45.489Z,0.65
2022-10-15T13:55:23.624Z,0.65
2022-10-15T13:57:56.796Z,0.50
2022-10-15T14:00:28.139Z,0.60
2022-10-15T14:03:16.668Z,0.50
2022-10-15T14:05:46.979Z,0.45
2022-10-15T14:08:23.599Z,0.63
2022-10-15T14:10:53.110Z,0.55
2022-10-15T14:13:21.385Z,0.50
2022-10-15T14:16:15.789Z,0.50
2022-10-15T14:18:49.017Z,0.47
2022-10-15T14:21:20.641Z,0.70
2022-10-15T14:23:50.659Z,0.50
2022-10-15T14:26:25.129Z,0.45
2022-10-15T14:28:55.810Z,0.70
2022-10-15T14:31:31.813Z,0.70
2022-10-15T14:33:59.907Z,1.48
2022-10-15T14:36:31.612Z,3.50
2022-10-15T14:39:27.584Z,2.75
2022-10-15T14:42:01.198Z,2.35
2022-10-15T14:44:42.691Z,4.10
2022-10-15T14:47:21.790Z,1.70
2022-10-15T14:49:51.550Z,2.40
2022-10-15T14:52:22.717Z,1.08
2022-10-15T14:55:02.321Z,0.93
2022-10-15T14:57:35.227Z,0.70
2022-10-15T15:00:05.251Z,0.90
2022-10-15T15:02:33.466Z,0.52
2022-10-15T15:05:15.987Z,0.70
2022-10-15T15:07:45.329Z,0.60
2022-10-15T15:10:13.318Z,0.68
2022-10-15T15:12:50.839Z,0.70
2022-10-15T15:15:21.015Z,0.68
2022-10-15T15:17:49.573Z,1.23
2022-10-15T15:20:20.121Z,0.77
2022-10-15T15:22:50.865Z,0.70
2022-10-15T15:25:21.034Z,1.67
2022-10-15T15:27:49.195Z,3.13
2022-10-15T15:30:19.930Z,2.38
2022-10-15T15:32:48.892Z,1.52
2022-10-15T15:35:40.346Z,1.33
2022-10-15T15:38:09.744Z,1.30
2022-10-15T15:40:37.690Z,0.90
2022-10-15T15:43:05.653Z,1.17
2022-10-15T15:45:33.701Z,0.80
2022-10-15T15:48:03.596Z,0.90
2022-10-15T15:50:31.759Z,0.68
2022-10-15T15:52:59.771Z,1.02
2022-10-15T15:55:30.177Z,0.80
2022-10-15T15:57:58.213Z,0.80
2022-10-15T16:00:26.182Z,0.70
2022-10-15T16:02:57.838Z,0.80
2022-10-15T16:05:26.605Z,0.85
2022-10-15T16:07:54.564Z,0.90
2022-10-15T16:10:22.762Z,2.30
2022-10-15T16:12:52.348Z,1.90
2022-10-15T16:15:20.329Z,1.38
2022-10-15T16:17:48.305Z,1.17
2022-10-15T16:20:16.330Z,1.10
2022-10-15T16:22:44.362Z,0.70
2022-10-15T16:25:12.485Z,0.70
2022-10-15T16:27:40.498Z,0.90
2022-10-15T16:30:10.919Z,0.82
2022-10-15T16:32:38.986Z,0.85
2022-10-15T16:35:07.924Z,1.00
2022-10-15T16:37:35.996Z,0.80
2022-10-15T16:40:04.037Z,0.90
2022-10-15T16:42:31.972Z,1.10
2022-10-15T16:45:00.528Z,1.10
2022-10-15T16:47:29.751Z,1.67
2022-10-15T16:49:57.714Z,1.50
2022-10-15T16:52:26.052Z,3.40
2022-10-15T16:54:54.157Z,1.77
2022-10-15T16:57:22.146Z,1.38
2022-10-15T16:59:51.745Z,1.00
2022-10-15T17:02:19.875Z,1.13
2022-10-15T17:04:49.277Z,1.10
2022-10-15T17:07:17.315Z,1.50
2022-10-15T17:12:16.180Z,1.55
2022-10-15T17:14:50.644Z,1.63
2022-10-15T17:17:18.682Z,1.40
2022-10-15T17:19:46.630Z,1.42
2022-10-15T17:22:16.087Z,1.40
2022-10-15T17:24:44.234Z,1.60
2022-10-15T17:27:12.539Z,1.10
2022-10-15T17:29:40.710Z,1.30
2022-10-15T17:32:08.765Z,1.30
2022-10-15T17:34:36.680Z,1.70
2022-10-15T17:37:04.682Z,1.60
2022-10-15T17:39:34.524Z,1.50
2022-10-15T17:42:02.541Z,1.95
2022-10-15T17:44:30.530Z,1.40
2022-10-15T17:46:58.510Z,1.55
2022-10-15T17:49:29.164Z,1.48
2022-10-15T17:51:57.236Z,1.40
2022-10-15T17:54:25.212Z,1.35
2022-10-15T17:56:56.838Z,1.73
2022-10-15T17:59:24.854Z,1.80
2022-10-15T18:01:58.317Z,1.98
2022-10-15T18:04:27.594Z,2.17
2022-10-15T18:06:55.739Z,2.05
2022-10-15T18:09:26.993Z,2.10
2022-10-15T18:12:01.709Z,2.90
2022-10-15T18:14:32.766Z,2.80
2022-10-15T18:17:00.872Z,2.65
2022-10-15T18:19:29.267Z,3.25
2022-10-15T18:21:57.521Z,2.33
2022-10-15T18:24:25.556Z,2.92
2022-10-15T18:26:54.363Z,2.92
2022-10-15T18:29:25.259Z,2.05
2022-10-15T18:31:57.323Z,1.40
2022-10-15T18:34:28.128Z,1.40
2022-10-15T18:36:56.097Z,1.77
2022-10-15T18:39:24.851Z,1.63
2022-10-15T18:41:52.821Z,1.80
2022-10-15T18:44:21.625Z,1.35
2022-10-15T18:46:51.867Z,1.40
2022-10-15T18:49:21.284Z,1.40
2022-10-15T18:51:51.798Z,1.33
2022-10-15T18:54:20.162Z,1.05
2022-10-15T18:56:48.606Z,1.48
2022-10-15T18:59:20.062Z,1.73
2022-10-15T19:01:51.182Z,1.50
2022-10-15T19:04:23.269Z,1.88
2022-10-15T19:06:53.329Z,1.77
2022-10-15T19:09:23.296Z,1.70
2022-10-15T19:11:53.544Z,1.60
2022-10-15T19:14:22.077Z,1.40
2022-10-15T19:16:51.590Z,1.65
2022-10-15T19:19:23.260Z,1.50
2022-10-15T19:21:52.467Z,1.92
2022-10-15T19:24:21.660Z,1.92
2022-10-15T19:26:50.906Z,1.90
2022-10-15T19:29:18.970Z,1.50
2022-10-15T19:31:49.423Z,1.38
2022-10-15T19:34:18.754Z,1.30
2022-10-15T19:36:50.541Z,1.77
2022-10-15T19:39:21.066Z,1.63
2022-10-15T19:41:49.865Z,1.73
2022-10-15T19:44:20.052Z,1.60
2022-10-15T19:46:48.360Z,1.60
2022-10-15T19:49:17.814Z,1.40
2022-10-15T19:51:48.016Z,1.60
2022-10-15T19:54:16.790Z,1.48
2022-10-15T19:56:44.832Z,1.48
2022-10-15T19:59:12.971Z,1.85
2022-10-15T20:01:41.028Z,1.67
2022-10-15T20:04:09.140Z,1.80
2022-10-15T20:06:39.641Z,1.67
2022-10-15T20:09:09.028Z,1.98
2022-10-15T20:11:37.769Z,2.17
2022-10-15T20:14:06.014Z,1.67
2022-10-15T20:16:34.002Z,1.52
2022-10-15T20:19:02.989Z,1.65
2022-10-15T20:21:31.488Z,1.60
2022-10-15T20:24:04.167Z,1.30
2022-10-15T20:26:34.233Z,1.35
2022-10-15T20:29:02.306Z,1.20
2022-10-15T20:31:33.039Z,1.30
2022-10-15T20:34:02.187Z,1.40
2022-10-15T20:36:30.609Z,1.35
2022-10-15T20:39:03.860Z,1.60
2022-10-15T20:41:31.842Z,1.35
2022-10-15T20:44:00.030Z,1.30
2022-10-15T20:46:33.495Z,1.30
2022-10-15T20:51:40.678Z,1.10
2022-10-15T20:54:11.459Z,0.90
2022-10-15T20:56:39.604Z,1.10
2022-10-15T20:59:10.074Z,0.80
2022-10-15T21:01:43.454Z,1.23
2022-10-15T21:04:11.622Z,1.60
2022-10-15T21:06:40.840Z,1.00
2022-10-15T21:09:12.535Z,1.30
2022-10-15T21:11:41.848Z,1.02
2022-10-15T21:14:10.089Z,0.93
2022-10-15T21:16:38.103Z,1.20
2022-10-15T21:19:06.244Z,0.90
2022-10-15T21:21:34.269Z,0.90
2022-10-15T21:24:02.227Z,1.10
2022-10-15T21:26:31.577Z,1.30
2022-10-15T21:29:00.656Z,1.08
2022-10-15T21:31:29.248Z,1.05
2022-10-15T21:33:57.589Z,1.60
2022-10-15T21:36:27.343Z,1.10
2022-10-15T21:38:57.473Z,1.30
2022-10-15T21:41:26.350Z,1.25
2022-10-15T21:43:55.766Z,1.13
2022-10-15T21:46:24.187Z,1.30
2022-10-15T21:48:53.377Z,1.30
2022-10-15T21:51:23.888Z,1.50
2022-10-15T21:53:52.327Z,1.30
2022-10-15T21:56:20.579Z,1.15
2022-10-15T21:58:49.065Z,1.25
2022-10-15T22:01:20.823Z,1.00
2022-10-15T22:03:50.055Z,1.15
2022-10-15T22:06:18.811Z,1.30
2022-10-15T22:08:47.196Z,1.05
2022-10-15T22:11:17.623Z,1.77
2022-10-15T22:13:47.447Z,1.60
2022-10-15T22:16:17.095Z,1.65
2022-10-15T22:18:46.934Z,1.55
2022-10-15T22:21:17.419Z,1.50
2022-10-15T22:23:46.200Z,1.55
2022-10-15T22:26:14.591Z,1.50
2022-10-15T22:28:42.982Z,1.75
2022-10-15T22:31:12.459Z,1.60
2022-10-15T22:33:41.618Z,1.60
2022-10-15T22:36:14.790Z,1.45
2022-10-15T22:38:44.040Z,1.35
2022-10-15T22:41:13.453Z,1.40
2022-10-15T22:43:41.553Z,1.40
2022-10-15T22:46:10.284Z,1.58
2022-10-15T22:48:40.817Z,1.80
2022-10-15T22:51:12.990Z,1.35
2022-10-15T22:53:41.990Z,1.60
2022-10-15T22:56:13.188Z,1.60
2022-10-15T22:58:41.476Z,1.60
2022-10-15T23:01:11.592Z,1.20
2022-10-15T23:03:40.592Z,1.55
2022-10-15T23:06:10.327Z,1.40
2022-10-15T23:08:38.856Z,1.38
2022-10-15T23:11:11.441Z,1.85
2022-10-15T23:13:40.192Z,1.50
2022-10-15T23:16:12.021Z,1.52
2022-10-15T23:18:41.297Z,1.30
2022-10-15T23:21:15.186Z,1.30
2022-10-15T23:23:43.892Z,1.30
2022-10-15T23:26:13.640Z,1.40
2022-10-15T23:28:42.229Z,1.60
2022-10-15T23:31:17.237Z,1.40
2022-10-15T23:33:45.308Z,1.77
2022-10-15T23:36:15.144Z,1.58
2022-10-15T23:38:43.080Z,1.60
2022-10-15T23:41:11.469Z,1.60
2022-10-15T23:43:39.430Z,1.65
2022-10-15T23:46:07.423Z,1.40
2022-10-15T23:48:35.806Z,1.50
2022-10-15T23:51:03.859Z,1.55
2022-10-15T23:53:34.103Z,1.50
2022-10-15T23:56:05.588Z,1.35
2022-10-15T23:58:35.121Z,1.67
